Time;durP1;ratioP1;P1;durP2;ratioP2;P2;SDS_P1;SDS_P2;PMS_P1;PMS_P2;Temp;Humidity;BMP_temperature;BMP_pressure;BME280_temperature;BME280_humidity;BME280_pressure;Samples;Min_cycle;Max_cycle;Signal;HPM_P1;HPM_P2
2022/11/13 00:00:17;;;;;;;17.10;12.18;;;22.30;99.90;;;;;;5111331;28;20281;-81
2022/11/13 00:02:50;;;;;;;15.05;13.13;;;22.30;99.90;;;;;;5100485;27;20308;-80
2022/11/13 00:05:21;;;;;;;13.88;12.48;;;22.30;99.90;;;;;;5103038;27;20187;-81
2022/11/13 00:07:53;;;;;;;15.38;12.40;;;22.30;99.90;;;;;;5108857;28;20211;-81
2022/11/13 00:10:24;;;;;;;15.32;12.80;;;22.30;99.90;;;;;;5112268;28;20195;-80
2022/11/13 00:12:55;;;;;;;15.18;11.77;;;22.30;99.90;;;;;;5109534;28;20267;-79
2022/11/13 00:15:25;;;;;;;13.35;12.02;;;22.40;99.90;;;;;;5104998;27;20195;-81
2022/11/13 00:18:01;;;;;;;13.30;11.77;;;22.40;99.90;;;;;;5109788;28;20648;-81
2022/11/13 00:20:32;;;;;;;14.80;11.82;;;22.40;99.90;;;;;;5111711;28;20225;-80
2022/11/13 00:23:03;;;;;;;14.05;12.20;;;22.50;99.90;;;;;;5114229;27;20200;-81
2022/11/13 00:25:36;;;;;;;15.57;12.43;;;22.50;99.90;;;;;;5133665;27;20214;-80
2022/11/13 00:28:07;;;;;;;14.63;12.45;;;22.70;99.90;;;;;;5124268;27;20202;-79
2022/11/13 00:30:38;;;;;;;13.50;11.98;;;22.70;99.90;;;;;;5124057;27;20202;-79
2022/11/13 00:33:11;;;;;;;14.25;12.85;;;22.70;99.90;;;;;;5115040;27;20199;-81
2022/11/13 00:35:42;;;;;;;13.82;12.43;;;22.80;99.90;;;;;;5097373;27;20218;-79
2022/11/13 00:38:13;;;;;;;13.25;11.85;;;22.90;99.90;;;;;;5103799;28;20286;-79
2022/11/13 00:40:44;;;;;;;12.57;11.27;;;22.90;99.90;;;;;;5105143;28;20215;-79
2022/11/13 00:43:15;;;;;;;13.85;12.43;;;23.00;99.90;;;;;;5109296;27;20221;-79
2022/11/13 00:45:46;;;;;;;14.15;12.65;;;23.00;99.90;;;;;;5090555;28;20195;-79
2022/11/13 00:48:19;;;;;;;13.80;11.45;;;23.10;99.90;;;;;;5119430;27;20190;-79
2022/11/13 00:50:51;;;;;;;13.70;12.30;;;23.10;99.90;;;;;;5113391;27;20218;-78
2022/11/13 00:53:22;;;;;;;12.43;11.23;;;23.20;99.90;;;;;;5111942;27;20201;-79
2022/11/13 00:55:54;;;;;;;16.45;11.60;;;23.20;99.90;;;;;;5105919;27;20194;-79
2022/11/13 00:58:25;;;;;;;12.57;11.23;;;23.20;99.90;;;;;;5101893;27;20604;-78
2022/11/13 01:00:56;;;;;;;11.80;10.65;;;23.20;99.90;;;;;;5102920;27;20293;-78
2022/11/13 01:03:28;;;;;;;11.32;10.13;;;23.20;99.90;;;;;;5105983;27;20664;-79
2022/11/13 01:06:00;;;;;;;11.43;9.95;;;23.30;99.90;;;;;;5083910;27;20203;-79
2022/11/13 01:08:31;;;;;;;12.10;10.80;;;23.40;99.90;;;;;;5085079;27;21022;-79
2022/11/13 01:11:02;;;;;;;11.18;10.07;;;23.40;99.90;;;;;;5085102;27;20631;-79
2022/11/13 01:13:33;;;;;;;10.40;8.63;;;23.50;99.90;;;;;;5085361;27;20198;-79
2022/11/13 01:16:09;;;;;;;10.30;8.85;;;23.50;99.90;;;;;;5085026;27;21463;-78
2022/11/13 01:18:42;;;;;;;9.88;8.43;;;23.50;99.90;;;;;;5090148;27;20199;-78
2022/11/13 01:21:15;;;;;;;9.00;8.10;;;23.60;99.90;;;;;;5092529;28;20314;-78
2022/11/13 01:23:46;;;;;;;9.18;8.27;;;23.50;99.90;;;;;;5083568;27;20211;-79
2022/11/13 01:26:20;;;;;;;9.30;7.93;;;23.60;99.90;;;;;;5087476;28;20219;-78
2022/11/13 01:28:51;;;;;;;7.95;7.07;;;23.60;99.90;;;;;;5098176;28;20222;-80
2022/11/13 01:31:23;;;;;;;11.32;7.28;;;23.60;99.90;;;;;;5083807;28;20198;-80
2022/11/13 01:33:57;;;;;;;8.90;7.85;;;23.60;99.90;;;;;;5084519;28;20202;-79
2022/11/13 01:36:29;;;;;;;8.40;7.15;;;23.60;99.90;;;;;;5085399;28;20239;-78
2022/11/13 01:39:01;;;;;;;8.13;6.57;;;23.70;99.90;;;;;;5083382;28;20218;-79
2022/11/13 01:41:34;;;;;;;8.07;6.43;;;23.80;99.90;;;;;;5084596;28;20453;-79
2022/11/13 01:44:05;;;;;;;7.70;6.95;;;24.00;99.90;;;;;;5085390;28;20198;-78
2022/11/13 01:46:38;;;;;;;7.80;6.80;;;24.10;99.90;;;;;;5085128;28;20204;-78
2022/11/13 01:49:27;;;;;;;8.57;6.05;;;24.40;99.90;;;;;;5086742;28;20220;-78
2022/11/13 01:52:00;;;;;;;6.82;5.88;;;24.50;99.90;;;;;;5086648;28;20204;-79
2022/11/13 01:54:35;;;;;;;7.15;6.45;;;24.60;99.90;;;;;;5084833;28;20202;-78
2022/11/13 01:57:08;;;;;;;7.88;5.90;;;24.60;99.90;;;;;;5084492;28;20198;-78
2022/11/13 01:59:43;;;;;;;6.32;5.63;;;24.70;99.90;;;;;;5087714;28;20680;-78
2022/11/13 02:02:14;;;;;;;7.25;5.88;;;24.80;99.90;;;;;;5084373;28;20238;-78
2022/11/13 02:04:48;;;;;;;6.50;5.82;;;24.90;99.90;;;;;;5086763;28;20195;-78
2022/11/13 02:07:22;;;;;;;5.88;5.30;;;25.00;99.90;;;;;;5086162;28;20614;-78
2022/11/13 02:09:55;;;;;;;7.72;5.45;;;25.00;99.90;;;;;;5087162;28;20253;-79
2022/11/13 02:12:32;;;;;;;5.15;4.70;;;25.00;99.90;;;;;;5085544;27;20248;-79
2022/11/13 02:15:04;;;;;;;4.35;3.95;;;25.00;99.90;;;;;;5089949;27;20190;-79
2022/11/13 02:17:39;;;;;;;5.90;4.60;;;25.20;99.90;;;;;;5088912;27;20195;-80
2022/11/13 02:20:12;;;;;;;5.78;5.05;;;25.50;99.90;;;;;;5094677;27;20193;-79
2022/11/13 02:22:52;;;;;;;4.20;3.80;;;25.90;99.90;;;;;;5093258;27;20227;-80
2022/11/13 02:25:27;;;;;;;4.65;4.10;;;26.10;99.90;;;;;;5092619;27;20198;-80
2022/11/13 02:27:58;;;;;;;4.63;4.18;;;26.10;99.90;;;;;;5092552;27;20203;-79
2022/11/13 02:30:32;;;;;;;4.45;3.50;;;26.20;99.90;;;;;;5110940;27;20217;-81
2022/11/13 02:33:03;;;;;;;4.35;3.50;;;26.20;99.90;;;;;;5112504;27;20288;-80
2022/11/13 02:35:35;;;;;;;3.72;3.38;;;26.30;99.90;;;;;;5102192;28;20203;-79
2022/11/13 02:38:07;;;;;;;5.00;3.40;;;26.40;99.90;;;;;;5133649;27;20648;-80
2022/11/13 02:40:40;;;;;;;3.85;3.45;;;26.30;99.90;;;;;;5134483;27;20216;-79
2022/11/13 02:43:11;;;;;;;4.60;3.33;;;26.30;99.90;;;;;;5101054;28;20230;-78
2022/11/13 02:45:42;;;;;;;3.45;2.85;;;26.40;99.90;;;;;;5094229;28;20285;-78
2022/11/13 02:48:13;;;;;;;3.55;2.95;;;26.40;99.90;;;;;;5131285;27;20278;-78
2022/11/13 02:50:44;;;;;;;5.20;3.28;;;26.50;99.90;;;;;;5111940;28;20194;-78
2022/11/13 02:53:15;;;;;;;3.35;3.03;;;26.60;99.90;;;;;;5120747;27;20698;-78
2022/11/13 02:55:47;;;;;;;3.20;2.90;;;26.70;99.90;;;;;;5118975;27;20190;-78
2022/11/13 02:58:18;;;;;;;3.88;2.97;;;26.90;99.90;;;;;;5119993;27;20643;-78
2022/11/13 03:00:49;;;;;;;3.40;2.88;;;27.10;99.90;;;;;;5126244;27;20193;-78
2022/11/13 03:03:21;;;;;;;2.78;2.50;;;27.20;99.90;;;;;;5106984;28;20225;-80
2022/11/13 03:05:53;;;;;;;2.35;2.15;;;27.30;99.90;;;;;;5105723;27;20267;-79
2022/11/13 03:08:25;;;;;;;3.55;2.80;;;27.40;99.90;;;;;;5095694;27;20199;-78
2022/11/13 03:10:58;;;;;;;4.65;2.97;;;27.50;99.90;;;;;;5098319;27;20215;-79
2022/11/13 03:13:29;;;;;;;3.85;2.67;;;27.60;99.90;;;;;;5112033;28;20222;-80
2022/11/13 03:16:11;;;;;;;4.60;2.97;;;27.60;99.90;;;;;;5106780;27;20671;-78
2022/11/13 03:18:42;;;;;;;3.00;2.70;;;27.60;99.90;;;;;;5106367;28;20221;-79
2022/11/13 03:21:14;;;;;;;5.50;3.05;;;27.60;99.90;;;;;;5116426;27;20208;-77
2022/11/13 03:23:46;;;;;;;6.80;2.88;;;27.60;99.90;;;;;;5114509;27;20224;-78
2022/11/13 03:26:19;;;;;;;4.00;3.10;;;27.80;99.90;;;;;;5105495;27;20217;-78
2022/11/13 03:28:50;;;;;;;3.70;2.78;;;27.80;99.90;;;;;;5114854;28;20183;-79
2022/11/13 03:31:22;;;;;;;4.00;2.65;;;27.90;99.90;;;;;;5138794;27;20305;-78
2022/11/13 03:33:55;;;;;;;2.83;2.50;;;27.80;99.90;;;;;;5118498;27;20563;-78
2022/11/13 03:36:25;;;;;;;4.93;2.75;;;27.70;99.90;;;;;;5117192;27;20193;-79
2022/11/13 03:38:56;;;;;;;3.90;3.10;;;27.70;99.90;;;;;;5133568;27;20553;-79
2022/11/13 03:41:29;;;;;;;2.97;2.60;;;27.70;99.90;;;;;;5112028;27;20222;-78
2022/11/13 03:44:01;;;;;;;5.13;2.80;;;27.70;99.90;;;;;;5112124;28;20206;-79
2022/11/13 03:46:31;;;;;;;3.67;2.70;;;27.60;99.90;;;;;;5123051;27;20198;-77
2022/11/13 03:49:02;;;;;;;2.97;2.40;;;27.50;99.90;;;;;;5111418;27;20209;-78
2022/11/13 03:51:33;;;;;;;2.92;2.63;;;27.50;99.90;;;;;;5122737;27;20571;-78
2022/11/13 03:54:04;;;;;;;3.10;2.58;;;27.50;99.90;;;;;;5113988;27;20197;-78
2022/11/13 03:56:36;;;;;;;4.05;2.80;;;27.50;99.90;;;;;;5117451;27;20200;-78
2022/11/13 03:59:11;;;;;;;3.33;2.70;;;27.50;99.90;;;;;;5108419;27;20682;-80
2022/11/13 04:01:42;;;;;;;4.28;2.67;;;27.50;99.90;;;;;;5115752;27;20676;-78
2022/11/13 04:04:13;;;;;;;3.20;2.90;;;27.50;99.90;;;;;;5129887;27;20626;-78
2022/11/13 04:06:43;;;;;;;3.88;2.85;;;27.40;99.90;;;;;;5114779;27;20217;-78
2022/11/13 04:09:15;;;;;;;3.17;2.70;;;27.40;99.90;;;;;;5118341;27;20221;-78
2022/11/13 04:11:48;;;;;;;2.63;2.42;;;27.40;99.90;;;;;;5097307;27;20337;-78
2022/11/13 04:14:19;;;;;;;2.67;2.47;;;27.30;99.90;;;;;;5106868;28;20195;-78
2022/11/13 04:16:49;;;;;;;3.17;2.38;;;27.20;99.90;;;;;;5096136;28;20285;-78
2022/11/13 04:19:20;;;;;;;3.50;2.63;;;27.10;99.90;;;;;;5115113;27;20190;-77
2022/11/13 04:21:51;;;;;;;3.92;2.38;;;26.90;99.90;;;;;;5126052;27;20218;-77
2022/11/13 04:24:22;;;;;;;2.45;2.10;;;26.80;99.90;;;;;;5104567;27;20192;-79
2022/11/13 04:26:55;;;;;;;2.10;1.90;;;26.70;99.90;;;;;;5106700;28;20226;-79
2022/11/13 04:29:28;;;;;;;2.25;2.05;;;26.60;99.90;;;;;;5116561;28;20224;-78
2022/11/13 04:31:59;;;;;;;2.78;2.38;;;26.50;99.90;;;;;;5111642;28;20873;-79
2022/11/13 04:34:33;;;;;;;2.38;1.98;;;26.40;99.90;;;;;;5110431;27;20206;-77
2022/11/13 04:37:04;;;;;;;2.45;2.08;;;26.50;99.90;;;;;;5117337;27;20198;-78
2022/11/13 04:39:35;;;;;;;2.47;2.10;;;26.40;99.90;;;;;;5103107;27;20195;-79
2022/11/13 04:44:54;;;;;;;4.13;2.00;;;26.30;99.90;;;;;;5129624;27;20716;-79
2022/11/13 04:47:26;;;;;;;2.70;1.98;;;26.40;99.90;;;;;;5108770;27;20211;-79
2022/11/13 04:49:57;;;;;;;3.60;2.10;;;26.50;99.90;;;;;;5101352;27;20191;-79
2022/11/13 04:52:29;;;;;;;2.42;1.83;;;26.50;99.90;;;;;;5094733;28;20215;-79
2022/11/13 04:55:00;;;;;;;2.65;1.77;;;26.50;99.90;;;;;;5108575;27;20246;-82
2022/11/13 04:57:33;;;;;;;2.13;1.73;;;26.50;99.90;;;;;;5095291;28;20274;-80
2022/11/13 05:00:05;;;;;;;2.83;1.80;;;26.50;99.90;;;;;;5105239;27;20227;-80
2022/11/13 05:02:36;;;;;;;2.13;1.67;;;26.60;99.90;;;;;;5113376;27;20234;-81
2022/11/13 05:05:09;;;;;;;2.65;1.60;;;26.50;99.90;;;;;;5129426;27;20607;-80
2022/11/13 05:07:41;;;;;;;3.40;1.60;;;26.50;99.90;;;;;;5112797;27;20202;-80
2022/11/13 05:10:12;;;;;;;6.03;2.00;;;26.40;99.90;;;;;;5117420;27;20214;-81
2022/11/13 05:12:45;;;;;;;2.03;1.30;;;26.50;99.90;;;;;;5103856;27;20202;-80
2022/11/13 05:15:15;;;;;;;1.75;1.15;;;26.40;99.90;;;;;;5115356;27;20663;-81
2022/11/13 05:17:46;;;;;;;2.53;1.20;;;26.40;99.90;;;;;;5111272;28;20186;-82
2022/11/13 05:20:17;;;;;;;2.97;1.40;;;26.30;99.90;;;;;;5113017;27;20282;-79
2022/11/13 05:22:49;;;;;;;3.17;1.20;;;26.30;99.90;;;;;;5124704;27;20221;-79
2022/11/13 05:25:19;;;;;;;2.75;1.15;;;26.30;99.90;;;;;;5093341;28;20199;-79
2022/11/13 05:27:52;;;;;;;1.77;1.27;;;26.20;99.90;;;;;;5103300;28;20191;-79
2022/11/13 05:30:23;;;;;;;1.60;1.27;;;26.30;99.90;;;;;;5121952;28;20203;-78
2022/11/13 05:32:54;;;;;;;1.92;1.00;;;26.30;99.90;;;;;;5104674;28;20584;-78
2022/11/13 05:35:25;;;;;;;1.23;1.00;;;26.30;99.90;;;;;;5097242;28;20248;-79
2022/11/13 05:37:56;;;;;;;1.48;1.17;;;26.30;99.90;;;;;;5105333;28;20530;-78
2022/11/13 05:40:27;;;;;;;1.33;1.05;;;26.30;99.90;;;;;;5099077;28;20206;-78
2022/11/13 05:42:59;;;;;;;2.08;1.20;;;26.30;99.90;;;;;;5105169;28;20220;-79
2022/11/13 05:45:30;;;;;;;3.50;1.45;;;26.20;99.90;;;;;;5115862;28;20221;-79
2022/11/13 05:48:01;;;;;;;2.67;1.40;;;26.20;99.90;;;;;;5113511;27;20538;-79
2022/11/13 05:50:31;;;;;;;1.95;1.27;;;26.10;99.90;;;;;;5134305;27;20565;-79
2022/11/13 05:53:02;;;;;;;1.92;1.30;;;26.10;99.90;;;;;;5131943;27;20213;-79
2022/11/13 05:55:33;;;;;;;1.65;1.30;;;26.10;99.90;;;;;;5134196;27;20189;-79
2022/11/13 05:58:06;;;;;;;4.90;1.60;;;26.10;99.90;;;;;;5117589;27;20197;-78
2022/11/13 06:00:36;;;;;;;1.58;1.27;;;26.00;99.90;;;;;;5129264;27;20196;-78
2022/11/13 06:03:07;;;;;;;3.40;1.45;;;26.00;99.90;;;;;;5133546;27;20244;-78
2022/11/13 06:05:40;;;;;;;1.77;1.10;;;26.00;99.90;;;;;;5126537;27;20277;-79
2022/11/13 06:08:13;;;;;;;2.00;1.00;;;25.90;99.90;;;;;;5112145;27;20191;-79
2022/11/13 06:10:44;;;;;;;1.60;1.20;;;25.90;99.90;;;;;;5115882;27;20269;-79
2022/11/13 06:13:18;;;;;;;1.13;0.98;;;25.90;99.90;;;;;;5103752;28;20348;-80
2022/11/13 06:15:48;;;;;;;2.60;1.20;;;25.90;99.90;;;;;;5121307;27;20244;-78
2022/11/13 06:18:24;;;;;;;2.20;1.02;;;26.00;99.90;;;;;;5113906;28;20236;-78
2022/11/13 06:20:54;;;;;;;1.77;1.02;;;26.00;99.90;;;;;;5103366;28;20201;-79
2022/11/13 06:23:26;;;;;;;7.40;1.20;;;26.00;99.90;;;;;;5101631;28;20222;-81
2022/11/13 06:26:03;;;;;;;1.98;1.20;;;26.00;99.90;;;;;;5102781;28;20286;-78
2022/11/13 06:28:36;;;;;;;2.03;1.08;;;26.00;99.90;;;;;;5101231;28;20190;-79
2022/11/13 06:31:09;;;;;;;2.80;1.33;;;26.00;99.90;;;;;;5118982;28;20298;-79
2022/11/13 06:33:40;;;;;;;2.55;1.13;;;25.90;99.90;;;;;;5110326;28;20612;-78
2022/11/13 06:36:14;;;;;;;4.00;1.10;;;25.80;99.90;;;;;;5119147;27;20584;-79
2022/11/13 06:38:46;;;;;;;1.58;1.05;;;25.80;99.90;;;;;;5117754;27;20198;-79
2022/11/13 06:41:19;;;;;;;1.45;1.10;;;25.90;99.90;;;;;;5112931;28;20233;-79
2022/11/13 06:43:52;;;;;;;2.13;1.15;;;25.80;99.90;;;;;;5112736;27;20268;-79
2022/11/13 06:46:28;;;;;;;1.60;1.23;;;25.70;99.90;;;;;;5121847;27;20221;-80
2022/11/13 06:49:00;;;;;;;1.58;1.05;;;25.70;99.90;;;;;;5130123;27;20194;-79
2022/11/13 06:51:32;;;;;;;2.58;1.20;;;25.60;99.90;;;;;;5102265;27;20679;-79
2022/11/13 06:54:03;;;;;;;1.75;1.10;;;25.60;99.90;;;;;;5102329;27;20202;-80
2022/11/13 06:56:34;;;;;;;1.45;1.10;;;25.50;99.90;;;;;;5123421;27;20198;-78
2022/11/13 06:59:06;;;;;;;1.75;1.10;;;25.50;99.90;;;;;;5115619;27;20673;-79
2022/11/13 07:01:37;;;;;;;2.08;1.20;;;25.40;99.90;;;;;;5129500;27;20229;-80
2022/11/13 07:04:09;;;;;;;2.40;1.08;;;25.40;99.90;;;;;;5097731;27;20229;-80
2022/11/13 07:06:40;;;;;;;1.35;1.13;;;25.40;99.90;;;;;;5105686;27;20197;-80
2022/11/13 07:09:15;;;;;;;1.90;1.20;;;25.40;99.90;;;;;;5120118;27;22358;-80
2022/11/13 07:11:45;;;;;;;1.90;1.17;;;25.30;99.90;;;;;;5133797;27;20563;-79
2022/11/13 07:14:18;;;;;;;1.88;1.13;;;25.40;99.90;;;;;;5110510;27;20601;-81
2022/11/13 07:16:49;;;;;;;1.60;1.15;;;25.40;99.90;;;;;;5134585;27;20198;-79
2022/11/13 07:19:20;;;;;;;3.58;1.15;;;25.30;99.90;;;;;;5101668;27;20209;-79
2022/11/13 07:21:51;;;;;;;1.92;1.17;;;25.30;99.90;;;;;;5110054;28;20197;-79
2022/11/13 07:24:22;;;;;;;2.38;1.05;;;25.20;99.90;;;;;;5111910;28;20226;-79
2022/11/13 07:26:54;;;;;;;2.88;1.30;;;25.20;99.90;;;;;;5109298;28;20201;-80
2022/11/13 07:29:26;;;;;;;1.25;1.15;;;25.20;99.90;;;;;;5104479;28;20217;-79
2022/11/13 07:31:57;;;;;;;1.83;1.20;;;25.20;99.90;;;;;;5118571;27;20218;-79
2022/11/13 07:34:28;;;;;;;3.40;1.27;;;25.20;99.90;;;;;;5101657;28;20199;-81
2022/11/13 07:37:00;;;;;;;3.55;1.38;;;25.10;99.90;;;;;;5100625;28;20194;-80
2022/11/13 07:39:30;;;;;;;1.40;1.05;;;25.10;99.90;;;;;;5095320;28;20274;-80
2022/11/13 07:42:01;;;;;;;1.33;1.13;;;25.00;99.90;;;;;;5106064;28;20194;-80
2022/11/13 07:44:34;;;;;;;2.33;1.50;;;25.00;99.90;;;;;;5098339;28;20234;-79
2022/11/13 07:47:04;;;;;;;2.53;1.40;;;25.00;99.90;;;;;;5092479;28;20199;-80
2022/11/13 07:49:35;;;;;;;2.15;1.30;;;25.00;99.90;;;;;;5094007;28;20230;-80
2022/11/13 07:52:06;;;;;;;2.35;1.52;;;25.00;99.90;;;;;;5107295;28;20195;-80
2022/11/13 07:54:37;;;;;;;2.38;1.45;;;25.00;99.90;;;;;;5101427;28;20649;-80
2022/11/13 07:57:08;;;;;;;2.67;1.50;;;25.00;99.90;;;;;;5098271;28;20384;-79
2022/11/13 07:59:41;;;;;;;2.60;1.40;;;25.00;99.90;;;;;;5107190;28;20190;-80
2022/11/13 08:02:16;;;;;;;2.22;1.40;;;24.90;99.90;;;;;;5113045;28;20252;-79
2022/11/13 08:04:46;;;;;;;2.35;1.42;;;24.90;99.90;;;;;;5111772;28;20233;-80
2022/11/13 08:07:17;;;;;;;2.13;1.30;;;24.90;99.90;;;;;;5111824;28;20187;-80
2022/11/13 08:09:48;;;;;;;2.83;1.58;;;24.90;99.90;;;;;;5126280;27;20190;-80
2022/11/13 08:12:19;;;;;;;2.15;1.45;;;24.90;99.90;;;;;;5126095;27;20199;-80
2022/11/13 08:14:51;;;;;;;2.60;1.55;;;24.80;99.90;;;;;;5101000;28;20233;-80
2022/11/13 08:17:22;;;;;;;2.03;1.60;;;24.80;99.90;;;;;;5125521;27;20606;-80
2022/11/13 08:19:53;;;;;;;1.80;1.42;;;24.80;99.90;;;;;;5115214;27;20683;-79
2022/11/13 08:22:24;;;;;;;1.33;1.23;;;24.80;99.90;;;;;;5111401;28;20198;-79
2022/11/13 08:24:55;;;;;;;2.97;1.38;;;24.70;99.90;;;;;;5120259;27;20222;-78
2022/11/13 08:27:27;;;;;;;2.15;1.45;;;24.80;99.90;;;;;;5110681;28;20761;-79
2022/11/13 08:30:00;;;;;;;1.45;1.30;;;24.80;99.90;;;;;;5108936;27;20218;-78
2022/11/13 08:32:31;;;;;;;2.97;1.50;;;24.70;99.90;;;;;;5122163;28;20277;-79
2022/11/13 08:35:03;;;;;;;2.33;1.45;;;24.70;99.90;;;;;;5099000;27;20214;-80
2022/11/13 08:37:34;;;;;;;5.40;1.60;;;24.70;99.90;;;;;;5091514;28;20287;-80
2022/11/13 08:40:06;;;;;;;4.85;1.67;;;24.60;99.90;;;;;;5111354;27;20209;-80
2022/11/13 08:42:37;;;;;;;2.85;1.60;;;24.70;99.90;;;;;;5123065;27;20273;-80
2022/11/13 08:45:10;;;;;;;3.20;1.60;;;24.60;99.90;;;;;;5109800;28;20275;-79
2022/11/13 08:47:41;;;;;;;2.17;1.67;;;24.60;99.90;;;;;;5101297;28;20207;-79
2022/11/13 08:50:12;;;;;;;2.63;1.52;;;24.50;99.90;;;;;;5106448;28;20668;-80
2022/11/13 08:52:43;;;;;;;2.28;1.52;;;24.50;99.90;;;;;;5123725;27;20232;-79
2022/11/13 08:55:14;;;;;;;3.05;1.63;;;24.50;99.90;;;;;;5122620;27;20202;-79
2022/11/13 08:57:55;;;;;;;4.60;1.50;;;24.40;99.90;;;;;;5118102;28;20241;-79
2022/11/13 09:03:20;;;;;;;2.10;1.70;;;24.30;99.90;;;;;;5104576;28;20724;-82
2022/11/13 09:06:04;;;;;;;1.92;1.50;;;24.20;99.90;;;;;;5129722;27;20191;-80
2022/11/13 09:08:59;;;;;;;2.67;1.63;;;24.20;99.90;;;;;;5107491;28;20196;-79
2022/11/13 09:11:32;;;;;;;3.33;1.85;;;24.10;99.90;;;;;;5128869;27;20199;-81
2022/11/13 09:14:03;;;;;;;3.03;1.80;;;24.10;99.90;;;;;;5111421;28;20246;-80
2022/11/13 09:16:46;;;;;;;2.28;1.60;;;24.10;99.90;;;;;;5121385;27;20226;-80
2022/11/13 09:19:30;;;;;;;3.50;1.80;;;24.10;99.90;;;;;;5124852;27;20202;-79
2022/11/13 09:22:13;;;;;;;2.47;1.88;;;24.00;99.90;;;;;;5126307;27;20676;-81
2022/11/13 09:24:48;;;;;;;3.38;1.63;;;24.00;99.90;;;;;;5101003;28;20210;-78
2022/11/13 09:27:21;;;;;;;2.40;1.63;;;23.90;99.90;;;;;;5128630;27;20206;-79
2022/11/13 09:30:05;;;;;;;1.60;1.40;;;23.90;99.90;;;;;;5145781;27;20181;-79
2022/11/13 09:32:41;;;;;;;2.35;1.40;;;23.80;99.90;;;;;;5115670;28;20214;-80
2022/11/13 09:35:32;;;;;;;2.53;1.70;;;23.70;99.90;;;;;;5110656;28;20195;-80
2022/11/13 09:38:08;;;;;;;3.38;1.40;;;23.70;99.90;;;;;;5122484;28;20201;-80
2022/11/13 09:40:55;;;;;;;3.17;1.50;;;23.60;99.90;;;;;;5125050;28;20191;-81
2022/11/13 09:46:58;;;;;;;2.83;1.63;;;23.60;99.90;;;;;;5078374;27;20521;-79
2022/11/13 09:49:35;;;;;;;1.33;1.23;;;23.50;99.90;;;;;;5063059;28;20201;-77
2022/11/13 09:52:22;;;;;;;2.75;1.58;;;23.50;99.90;;;;;;5063371;28;20223;-79
2022/11/13 09:54:55;;;;;;;2.63;1.63;;;23.50;99.90;;;;;;5062733;28;20197;-81
2022/11/13 09:57:45;;;;;;;1.83;1.70;;;23.40;99.90;;;;;;5055394;28;20193;-80
2022/11/13 10:00:19;;;;;;;2.15;1.70;;;23.40;99.90;;;;;;5062784;28;20202;-80
2022/11/13 10:03:15;;;;;;;2.58;1.77;;;23.30;99.90;;;;;;5058481;28;20254;-81
2022/11/13 10:05:55;;;;;;;3.78;1.85;;;23.30;99.90;;;;;;5055787;28;20259;-81
2022/11/13 10:08:36;;;;;;;2.40;1.67;;;23.30;99.90;;;;;;5053111;28;20196;-82
2022/11/13 10:11:14;;;;;;;2.53;1.83;;;23.30;99.90;;;;;;5063232;28;20220;-81
2022/11/13 10:16:57;;;;;;;3.08;2.00;;;23.20;99.90;;;;;;5054587;28;20221;-80
2022/11/13 10:19:51;;;;;;;2.20;2.00;;;23.20;99.90;;;;;;5060067;28;20205;-79
2022/11/13 10:22:30;;;;;;;2.55;2.20;;;23.20;99.90;;;;;;5050294;28;20614;-82
2022/11/13 10:25:13;;;;;;;2.20;1.90;;;23.10;99.90;;;;;;5049119;28;20210;-77
2022/11/13 10:30:47;;;;;;;2.05;1.90;;;23.00;99.90;;;;;;5053443;28;20200;-80
2022/11/13 10:33:29;;;;;;;3.50;2.28;;;23.00;99.90;;;;;;5054013;23;20311;-82
2022/11/13 10:36:17;;;;;;;2.38;2.17;;;23.00;99.90;;;;;;5036110;28;20193;-80
2022/11/13 10:39:12;;;;;;;4.03;2.55;;;23.10;99.90;;;;;;5040352;28;20203;-81
2022/11/13 10:42:07;;;;;;;3.15;2.15;;;23.10;99.90;;;;;;5041860;28;20207;-80
2022/11/13 10:44:39;;;;;;;3.85;2.17;;;23.10;99.90;;;;;;5039138;28;20289;-80
2022/11/13 10:47:22;;;;;;;3.97;2.30;;;23.00;99.90;;;;;;5031718;28;20201;-77
2022/11/13 10:49:57;;;;;;;2.42;1.95;;;23.00;99.90;;;;;;5031502;28;20206;-79
2022/11/13 10:52:50;;;;;;;4.57;2.50;;;23.00;99.90;;;;;;5010732;28;20177;-78
2022/11/13 10:55:37;;;;;;;4.22;2.22;;;22.90;99.90;;;;;;5022006;28;20650;-79
2022/11/13 10:58:23;;;;;;;2.97;2.40;;;22.90;99.90;;;;;;5025749;28;20194;-79
2022/11/13 11:00:57;;;;;;;2.40;2.20;;;22.90;99.90;;;;;;5013628;28;20198;-79
2022/11/13 11:03:28;;;;;;;2.85;2.25;;;22.80;99.90;;;;;;5018192;28;20585;-80
2022/11/13 11:06:01;;;;;;;2.50;2.30;;;22.90;99.90;;;;;;5015112;28;20226;-79
2022/11/13 11:08:41;;;;;;;2.58;2.38;;;22.90;99.90;;;;;;5015719;28;20208;-80
2022/11/13 11:14:32;;;;;;;3.35;2.42;;;22.90;99.90;;;;;;5025332;28;20279;-80
2022/11/13 11:17:06;;;;;;;5.03;2.67;;;23.00;99.90;;;;;;5029193;28;20312;-79
2022/11/13 11:19:41;;;;;;;5.55;2.50;;;23.00;99.90;;;;;;5015841;28;20229;-80
2022/11/13 11:22:17;;;;;;;3.10;2.60;;;22.90;99.90;;;;;;5022354;28;20310;-80
2022/11/13 11:24:58;;;;;;;3.85;2.70;;;23.00;99.90;;;;;;5029287;28;20276;-80
2022/11/13 11:27:36;;;;;;;3.47;2.58;;;23.00;99.90;;;;;;5047830;28;20194;-79
2022/11/13 11:30:15;;;;;;;2.92;2.70;;;23.00;99.90;;;;;;5031257;28;20304;-79
2022/11/13 11:32:52;;;;;;;4.10;2.70;;;23.00;99.90;;;;;;5030566;28;20197;-80
2022/11/13 11:35:26;;;;;;;2.85;2.65;;;22.90;99.90;;;;;;5024984;28;20279;-80
2022/11/13 11:38:02;;;;;;;3.33;2.60;;;22.90;99.90;;;;;;5032751;28;20189;-80
2022/11/13 11:40:39;;;;;;;3.83;2.63;;;22.90;99.90;;;;;;5033066;28;20212;-80
2022/11/13 11:43:21;;;;;;;3.20;2.90;;;23.00;99.90;;;;;;5027685;28;20212;-81
2022/11/13 11:46:08;;;;;;;2.85;2.63;;;22.90;99.90;;;;;;5023837;28;20231;-79
2022/11/13 11:48:39;;;;;;;2.70;2.50;;;22.90;99.90;;;;;;5010849;28;20201;-78
2022/11/13 11:51:21;;;;;;;4.70;2.80;;;22.90;99.90;;;;;;5011360;28;20674;-79
2022/11/13 11:54:05;;;;;;;3.83;2.50;;;22.90;99.90;;;;;;5008332;28;20201;-81
2022/11/13 11:56:49;;;;;;;2.90;2.70;;;22.90;99.90;;;;;;4998600;28;20308;-78
2022/11/13 11:59:39;;;;;;;4.25;2.78;;;22.90;99.90;;;;;;5034468;28;20232;-79
2022/11/13 12:02:50;;;;;;;4.07;2.60;;;22.90;99.90;;;;;;5017431;28;20226;-76
2022/11/13 12:05:28;;;;;;;3.20;2.90;;;22.90;99.90;;;;;;5024501;28;20252;-78
2022/11/13 12:08:14;;;;;;;4.13;2.70;;;22.80;99.90;;;;;;5028761;28;20193;-78
2022/11/13 12:10:54;;;;;;;3.25;2.60;;;22.80;99.90;;;;;;5032536;28;20578;-78
2022/11/13 12:13:39;;;;;;;4.07;2.78;;;22.70;99.90;;;;;;5014102;28;20229;-77
2022/11/13 12:16:21;;;;;;;3.00;2.60;;;22.70;99.90;;;;;;5013645;28;20217;-78
2022/11/13 12:19:01;;;;;;;2.97;2.67;;;22.70;99.90;;;;;;5010514;28;20196;-78
2022/11/13 12:21:42;;;;;;;3.08;2.78;;;22.70;99.90;;;;;;5011423;28;20656;-79
2022/11/13 12:24:47;;;;;;;3.50;2.60;;;22.70;99.90;;;;;;5014458;28;20206;-79
2022/11/13 12:27:28;;;;;;;4.15;2.53;;;22.70;99.90;;;;;;5024596;28;20241;-78
2022/11/13 12:30:10;;;;;;;2.65;2.45;;;22.70;99.90;;;;;;5011689;28;20190;-78
2022/11/13 12:33:04;;;;;;;4.72;2.65;;;22.70;99.90;;;;;;5006552;28;20277;-78
2022/11/13 12:35:36;;;;;;;3.13;2.70;;;22.70;99.90;;;;;;5016800;28;20263;-77
2022/11/13 12:38:15;;;;;;;2.95;2.33;;;22.70;99.90;;;;;;5015444;28;20559;-78
2022/11/13 12:41:15;;;;;;;3.35;2.40;;;22.70;99.90;;;;;;5008553;28;20657;-76
2022/11/13 12:44:19;;;;;;;2.42;2.22;;;22.70;99.90;;;;;;5010133;28;20202;-78
2022/11/13 12:46:52;;;;;;;2.40;2.10;;;22.70;99.90;;;;;;5008948;28;20221;-79
2022/11/13 12:49:32;;;;;;;3.20;2.40;;;22.70;99.90;;;;;;5006843;28;20221;-79
2022/11/13 12:52:06;;;;;;;2.97;2.40;;;22.70;99.90;;;;;;5018077;28;20391;-79
2022/11/13 12:54:37;;;;;;;2.08;1.88;;;22.60;99.90;;;;;;5004673;28;20229;-78
2022/11/13 12:57:21;;;;;;;3.30;2.33;;;22.60;99.90;;;;;;5003340;28;20225;-79
2022/11/13 12:59:54;;;;;;;4.32;2.40;;;22.60;99.90;;;;;;5006363;28;20308;-79
2022/11/13 13:02:45;;;;;;;5.25;2.38;;;22.60;99.90;;;;;;5003292;28;20626;-79
2022/11/13 13:05:35;;;;;;;2.72;2.20;;;22.50;99.90;;;;;;5009105;28;20202;-78
2022/11/13 13:08:30;;;;;;;3.17;1.90;;;22.50;99.90;;;;;;5009324;28;20649;-79
2022/11/13 13:11:14;;;;;;;3.42;2.15;;;22.50;99.90;;;;;;5007259;28;20244;-78
2022/11/13 13:13:50;;;;;;;2.90;2.17;;;22.50;99.90;;;;;;5001308;28;20282;-79
2022/11/13 13:16:27;;;;;;;2.33;2.00;;;22.50;99.90;;;;;;5006926;28;20290;-79
2022/11/13 13:19:24;;;;;;;3.25;2.00;;;22.50;99.90;;;;;;5009230;28;20694;-78
2022/11/13 13:21:55;;;;;;;5.65;2.40;;;22.50;99.90;;;;;;5019352;28;20197;-79
2022/11/13 13:24:33;;;;;;;2.42;2.20;;;22.50;99.90;;;;;;5005784;28;20266;-78
2022/11/13 13:27:08;;;;;;;3.38;2.20;;;22.40;99.90;;;;;;5018154;28;20233;-79
2022/11/13 13:29:52;;;;;;;3.83;2.10;;;22.50;99.90;;;;;;5025020;28;20198;-78
2022/11/13 13:32:28;;;;;;;4.07;2.00;;;22.40;99.90;;;;;;5005253;28;20212;-78
2022/11/13 13:35:09;;;;;;;2.28;1.90;;;22.40;99.90;;;;;;5006324;28;20192;-79
2022/11/13 13:37:48;;;;;;;2.75;2.03;;;22.40;99.90;;;;;;5010668;28;20205;-79
2022/11/13 13:40:30;;;;;;;2.17;1.98;;;22.50;99.90;;;;;;5006828;28;20201;-79
2022/11/13 13:43:24;;;;;;;2.78;2.15;;;22.50;99.90;;;;;;4993292;28;20202;-81